createdAt,value
2018-06-20T00:00:07.830Z,91.75
2018-06-20T00:02:36.504Z,94.38
2018-06-20T00:05:05.132Z,95.13
2018-06-20T00:07:33.690Z,93.54
2018-06-20T00:10:02.278Z,94.54
2018-06-20T00:12:30.838Z,94.12
2018-06-20T00:14:59.595Z,94.48
2018-06-20T00:17:28.137Z,92.77
2018-06-20T00:19:56.722Z,92.21
2018-06-20T00:22:25.281Z,93.06
2018-06-20T00:24:53.857Z,93.39
2018-06-20T00:27:22.452Z,93.54
2018-06-20T00:29:51.041Z,92.51
2018-06-20T00:32:20.440Z,93.25
2018-06-20T00:34:49.040Z,92.42
2018-06-20T00:37:17.576Z,91.72
2018-06-20T00:39:46.155Z,91.30
2018-06-20T00:42:14.696Z,92.27
2018-06-20T00:44:43.286Z,92.91
2018-06-20T00:47:11.841Z,91.74
2018-06-20T00:49:40.425Z,92.16
2018-06-20T00:52:08.976Z,93.35
2018-06-20T00:54:37.546Z,93.99
2018-06-20T00:57:06.111Z,92.75
2018-06-20T00:59:35.606Z,93.52
2018-06-20T01:02:04.182Z,92.94
2018-06-20T01:04:32.780Z,94.08
2018-06-20T01:07:01.309Z,93.93
2018-06-20T01:09:29.838Z,93.57
2018-06-20T01:11:58.566Z,93.12
2018-06-20T01:14:26.969Z,93.91
2018-06-20T01:16:55.770Z,95.15
2018-06-20T01:19:24.290Z,94.57
2018-06-20T01:21:52.865Z,95.38
2018-06-20T01:24:21.404Z,96.33
2018-06-20T01:26:49.968Z,94.79
2018-06-20T01:29:18.504Z,94.45
2018-06-20T01:31:47.073Z,95.25
2018-06-20T01:34:15.624Z,94.86
2018-06-20T01:36:44.561Z,94.68
2018-06-20T01:39:13.164Z,94.64
2018-06-20T01:41:42.133Z,94.21
2018-06-20T01:44:10.666Z,94.70
2018-06-20T01:46:39.257Z,96.07
2018-06-20T01:49:08.252Z,95.50
2018-06-20T01:51:37.153Z,94.72
2018-06-20T01:54:06.348Z,95.20
2018-06-20T01:56:35.780Z,94.78
2018-06-20T01:59:04.324Z,94.22
2018-06-20T02:01:32.888Z,95.08
2018-06-20T02:04:01.456Z,95.79
2018-06-20T02:06:30.076Z,95.11
2018-06-20T02:08:59.001Z,95.30
2018-06-20T02:11:29.157Z,95.91
2018-06-20T02:13:57.736Z,96.16
2018-06-20T02:16:26.308Z,95.98
2018-06-20T02:18:54.917Z,95.65
2018-06-20T02:21:23.464Z,95.88
2018-06-20T02:23:51.989Z,94.64
2018-06-20T02:26:20.571Z,96.26
2018-06-20T02:28:49.097Z,96.29
2018-06-20T02:31:17.660Z,96.18
2018-06-20T02:33:46.185Z,97.73
2018-06-20T02:36:19.897Z,95.71
2018-06-20T02:38:48.445Z,94.71
2018-06-20T02:41:17.015Z,94.87
2018-06-20T02:43:45.576Z,95.28
2018-06-20T02:46:14.137Z,95.48
2018-06-20T02:48:42.666Z,95.01
2018-06-20T02:51:11.234Z,96.30
2018-06-20T02:53:39.768Z,94.75
2018-06-20T02:56:08.347Z,94.52
2018-06-20T02:58:36.965Z,95.01
2018-06-20T03:01:05.534Z,95.62
2018-06-20T03:03:34.133Z,95.30
2018-06-20T03:06:02.665Z,94.49
2018-06-20T03:08:31.244Z,95.17
2018-06-20T03:10:59.776Z,95.09
2018-06-20T03:13:28.340Z,95.92
2018-06-20T03:15:56.866Z,95.20
2018-06-20T03:18:25.482Z,96.06
2018-06-20T03:20:54.013Z,96.17
2018-06-20T03:23:22.586Z,94.67
2018-06-20T03:25:51.126Z,95.07
2018-06-20T03:28:19.704Z,94.43
2018-06-20T03:30:48.249Z,95.02
2018-06-20T03:33:16.809Z,94.83
2018-06-20T03:35:45.344Z,94.46
2018-06-20T03:38:13.913Z,94.21
2018-06-20T03:40:42.466Z,93.74
2018-06-20T03:43:11.048Z,93.83
2018-06-20T03:45:39.576Z,92.92
2018-06-20T03:48:08.135Z,93.14
2018-06-20T03:50:37.132Z,92.07
2018-06-20T03:53:05.708Z,93.36
2018-06-20T03:55:34.249Z,94.56
2018-06-20T03:58:02.811Z,94.26
2018-06-20T04:00:31.349Z,93.41
2018-06-20T04:02:59.936Z,95.11
2018-06-20T04:05:30.260Z,95.18
2018-06-20T04:07:59.256Z,94.48
2018-06-20T04:10:27.853Z,94.22
2018-06-20T04:12:56.417Z,94.44
2018-06-20T04:15:24.940Z,94.59
2018-06-20T04:17:53.508Z,95.41
2018-06-20T04:20:22.065Z,95.13
2018-06-20T04:22:50.626Z,95.89
2018-06-20T04:25:19.165Z,95.16
2018-06-20T04:27:47.749Z,95.11
2018-06-20T04:30:16.274Z,95.31
2018-06-20T04:32:44.835Z,95.43
2018-06-20T04:35:13.364Z,95.15
2018-06-20T04:37:41.914Z,94.68
2018-06-20T04:40:10.448Z,95.97
2018-06-20T04:42:39.016Z,96.04
2018-06-20T04:45:07.547Z,96.13
2018-06-20T04:47:36.116Z,97.24
2018-06-20T04:50:04.678Z,97.95
2018-06-20T04:52:33.625Z,97.48
2018-06-20T04:55:03.593Z,96.82
2018-06-20T04:57:32.116Z,97.17
2018-06-20T05:00:02.134Z,96.29
2018-06-20T05:02:30.772Z,95.40
2018-06-20T05:04:59.625Z,96.08
2018-06-20T05:07:28.352Z,96.30
2018-06-20T05:10:00.088Z,95.94
2018-06-20T05:12:29.253Z,95.09
2018-06-20T05:14:58.211Z,94.36
2018-06-20T05:17:27.158Z,94.98
2018-06-20T05:19:55.801Z,93.66
2018-06-20T05:22:24.335Z,94.72
2018-06-20T05:24:52.904Z,94.80
2018-06-20T05:27:21.438Z,95.39
2018-06-20T05:29:50.001Z,95.97
2018-06-20T05:32:18.520Z,95.55
2018-06-20T05:34:53.709Z,94.91
2018-06-20T05:37:22.373Z,95.59
2018-06-20T05:39:50.977Z,96.30
2018-06-20T05:42:19.545Z,94.65
2018-06-20T05:44:48.101Z,94.57
2018-06-20T05:47:16.692Z,94.14
2018-06-20T05:49:45.681Z,93.59
2018-06-20T05:52:14.205Z,93.20
2018-06-20T05:54:44.722Z,92.41
2018-06-20T05:57:13.249Z,92.47
2018-06-20T05:59:41.817Z,92.31
2018-06-20T06:02:10.389Z,91.96
2018-06-20T06:04:38.956Z,92.08
2018-06-20T06:07:08.041Z,90.75
2018-06-20T06:09:36.601Z,90.67
2018-06-20T06:12:05.185Z,90.71
2018-06-20T06:14:33.696Z,90.10
2018-06-20T06:17:02.406Z,89.45
2018-06-20T06:19:30.968Z,89.66
2018-06-20T06:21:59.497Z,89.71
2018-06-20T06:24:28.927Z,88.68
2018-06-20T06:27:00.202Z,89.04
2018-06-20T06:29:28.849Z,88.86
2018-06-20T06:31:57.585Z,87.65
2018-06-20T06:34:26.148Z,87.98
2018-06-20T06:36:54.677Z,86.99
2018-06-20T06:39:23.233Z,86.21
2018-06-20T06:41:51.749Z,86.78
2018-06-20T06:44:20.302Z,85.48
2018-06-20T06:46:48.834Z,85.80
2018-06-20T06:49:17.397Z,85.84
2018-06-20T06:51:45.920Z,87.38
2018-06-20T06:54:14.433Z,85.79
2018-06-20T06:56:42.985Z,84.65
2018-06-20T06:59:11.505Z,84.35
2018-06-20T07:01:40.065Z,84.58
2018-06-20T07:04:08.631Z,83.71
2018-06-20T07:06:38.262Z,84.15
2018-06-20T07:09:08.161Z,84.40
2018-06-20T07:11:36.725Z,84.35
2018-06-20T07:14:05.362Z,82.85
2018-06-20T07:16:33.925Z,83.33
2018-06-20T07:19:02.455Z,83.65
2018-06-20T07:21:31.017Z,83.55
2018-06-20T07:23:59.613Z,83.88
2018-06-20T07:26:28.506Z,82.46
2018-06-20T07:28:57.188Z,83.67
2018-06-20T07:31:25.773Z,82.22
2018-06-20T07:33:54.413Z,83.50
2018-06-20T07:36:23.033Z,80.46
2018-06-20T07:38:51.557Z,80.33
2018-06-20T07:41:20.115Z,79.17
2018-06-20T07:43:48.984Z,78.14
2018-06-20T07:46:17.533Z,77.89
2018-06-20T07:48:46.092Z,77.88
2018-06-20T07:51:14.657Z,77.59
2018-06-20T07:53:43.177Z,76.74
2018-06-20T07:56:11.735Z,77.35
2018-06-20T07:58:45.665Z,77.39
2018-06-20T08:01:29.633Z,77.55
2018-06-20T08:04:03.345Z,78.33
2018-06-20T08:06:37.300Z,78.01
2018-06-20T08:09:13.163Z,77.97
2018-06-20T08:11:47.415Z,77.62
2018-06-20T08:14:21.172Z,76.29
2018-06-20T08:16:56.657Z,78.03
2018-06-20T08:19:30.562Z,75.74
2018-06-20T08:21:59.121Z,77.51
2018-06-20T08:24:27.637Z,76.58
2018-06-20T08:26:56.217Z,74.43
2018-06-20T08:29:24.738Z,74.29
2018-06-20T08:31:53.367Z,73.40
2018-06-20T08:34:21.889Z,71.73
2018-06-20T08:36:52.268Z,73.29
2018-06-20T08:39:20.828Z,71.83
2018-06-20T08:41:50.944Z,73.00
2018-06-20T08:44:22.249Z,73.56
2018-06-20T08:46:53.270Z,73.77
2018-06-20T08:49:22.174Z,70.79
2018-06-20T08:51:53.636Z,70.31
2018-06-20T08:54:22.181Z,71.59
2018-06-20T08:56:54.246Z,70.71
2018-06-20T08:59:26.482Z,69.30
2018-06-20T09:02:02.161Z,71.78
2018-06-20T09:04:38.386Z,70.00
2018-06-20T09:07:15.401Z,70.11
2018-06-20T09:09:52.429Z,71.41
2018-06-20T09:12:28.956Z,71.93
2018-06-20T09:15:02.721Z,69.42
2018-06-20T09:17:36.540Z,68.32
2018-06-20T09:20:07.077Z,70.40
2018-06-20T09:22:35.927Z,68.82
2018-06-20T09:25:06.673Z,68.26
2018-06-20T09:27:36.776Z,68.76
2018-06-20T09:30:07.487Z,66.69
2018-06-20T09:32:36.057Z,66.98
2018-06-20T09:35:04.648Z,67.83
2018-06-20T09:37:33.194Z,67.25
2018-06-20T09:40:02.084Z,67.43
2018-06-20T09:42:33.728Z,68.52
2018-06-20T09:45:02.553Z,66.61
2018-06-20T09:47:31.105Z,66.87
2018-06-20T09:50:03.952Z,68.33
2018-06-20T09:52:32.505Z,65.41
2018-06-20T09:55:05.237Z,67.99
2018-06-20T09:57:34.171Z,67.21
2018-06-20T10:00:07.931Z,68.89
2018-06-20T10:02:42.485Z,69.11
2018-06-20T10:05:16.434Z,66.42
2018-06-20T10:07:50.262Z,64.84
2018-06-20T10:10:25.177Z,64.47
2018-06-20T10:13:01.916Z,64.33
2018-06-20T10:15:31.440Z,64.79
2018-06-20T10:18:00.149Z,65.35
2018-06-20T10:20:29.883Z,66.67
2018-06-20T10:23:00.177Z,63.40
2018-06-20T10:25:29.810Z,63.20
2018-06-20T10:28:03.576Z,64.83
2018-06-20T10:30:32.361Z,63.39
2018-06-20T10:33:01.032Z,62.94
2018-06-20T10:35:29.589Z,62.72
2018-06-20T10:37:58.120Z,64.25
2018-06-20T10:40:27.650Z,64.62
2018-06-20T10:42:56.192Z,65.75
2018-06-20T10:45:30.041Z,67.80
2018-06-20T10:48:13.113Z,64.47
2018-06-20T10:50:42.400Z,66.10
2018-06-20T10:53:12.670Z,62.60
2018-06-20T10:55:41.641Z,62.43
2018-06-20T10:58:16.150Z,63.79
2018-06-20T11:00:50.580Z,63.53
2018-06-20T11:03:25.306Z,62.92
2018-06-20T11:05:59.822Z,64.40
2018-06-20T11:08:33.929Z,64.32
2018-06-20T11:11:08.121Z,63.78
2018-06-20T11:13:36.816Z,62.91
2018-06-20T11:16:05.529Z,64.23
2018-06-20T11:18:35.884Z,61.77
2018-06-20T11:21:04.453Z,59.67
2018-06-20T11:23:32.996Z,62.82
2018-06-20T11:26:01.561Z,61.10
2018-06-20T11:28:30.076Z,62.30
2018-06-20T11:30:58.640Z,62.52
2018-06-20T11:33:27.208Z,64.44
2018-06-20T11:35:57.050Z,63.07
2018-06-20T11:38:30.597Z,61.58
2018-06-20T11:40:59.319Z,59.18
2018-06-20T11:43:35.103Z,58.69
2018-06-20T11:46:13.330Z,59.29
2018-06-20T11:48:49.648Z,57.94
2018-06-20T11:51:29.563Z,57.65
2018-06-20T11:53:58.149Z,59.02
2018-06-20T11:56:30.773Z,58.11
2018-06-20T11:59:05.899Z,57.40
2018-06-20T12:01:41.755Z,58.54
2018-06-20T12:04:20.151Z,58.24
2018-06-20T12:06:53.960Z,60.80
2018-06-20T12:09:31.835Z,59.21
2018-06-20T12:12:07.743Z,63.03
2018-06-20T12:14:51.461Z,59.76
2018-06-20T12:17:37.808Z,60.44
2018-06-20T12:20:18.055Z,61.60
2018-06-20T12:22:55.828Z,58.92
2018-06-20T12:25:32.987Z,59.50
2018-06-20T12:28:08.255Z,62.29
2018-06-20T12:30:42.092Z,60.75
2018-06-20T12:33:19.087Z,56.19
2018-06-20T12:35:53.801Z,61.72
2018-06-20T12:38:28.854Z,57.08
2018-06-20T12:41:05.608Z,56.79
2018-06-20T12:43:40.019Z,55.65
2018-06-20T12:46:14.905Z,56.74
2018-06-20T12:48:43.448Z,57.44
2018-06-20T12:51:12.013Z,61.68
2018-06-20T12:53:40.538Z,60.34
2018-06-20T12:56:09.118Z,59.01
2018-06-20T12:58:37.645Z,55.12
2018-06-20T13:01:06.176Z,59.31
2018-06-20T13:03:34.768Z,57.13
2018-06-20T13:06:03.305Z,59.36
2018-06-20T13:08:32.591Z,53.17
2018-06-20T13:11:08.078Z,56.40
2018-06-20T13:13:37.250Z,54.60
2018-06-20T13:16:05.935Z,58.00
2018-06-20T13:18:35.431Z,55.67
2018-06-20T13:21:04.225Z,57.67
2018-06-20T13:23:32.977Z,58.59
2018-06-20T13:26:01.504Z,53.15
2018-06-20T13:28:30.912Z,50.27
2018-06-20T13:31:04.593Z,54.34
2018-06-20T13:34:43.886Z,51.72
2018-06-20T13:37:19.171Z,52.17
2018-06-20T13:39:53.915Z,53.46
2018-06-20T13:43:32.504Z,55.55
2018-06-20T13:46:06.959Z,53.00
2018-06-20T13:48:36.795Z,52.17
2018-06-20T13:51:05.373Z,53.44
2018-06-20T13:53:33.933Z,50.23
2018-06-20T13:56:02.519Z,54.51
2018-06-20T13:58:31.053Z,50.39
2018-06-20T14:00:59.581Z,51.58
2018-06-20T14:03:28.250Z,48.58
2018-06-20T14:05:56.773Z,49.03
2018-06-20T14:08:25.335Z,49.25
2018-06-20T14:10:53.885Z,50.06
2018-06-20T14:13:22.440Z,50.97
2018-06-20T14:15:51.177Z,50.74
2018-06-20T14:18:19.901Z,49.88
2018-06-20T14:20:53.788Z,53.14
2018-06-20T14:23:22.573Z,51.31
2018-06-20T14:25:51.324Z,52.14
2018-06-20T14:28:20.092Z,49.67
2018-06-20T14:30:53.997Z,49.98
2018-06-20T14:33:28.143Z,47.19
2018-06-20T14:36:02.002Z,49.17
2018-06-20T14:38:35.953Z,50.59
2018-06-20T14:41:21.240Z,46.20
2018-06-20T14:43:55.800Z,46.34
2018-06-20T14:46:25.730Z,46.62
2018-06-20T14:48:54.316Z,44.64
2018-06-20T14:51:23.081Z,46.43
2018-06-20T14:53:51.651Z,43.60
2018-06-20T14:56:20.173Z,45.78
2018-06-20T14:58:48.701Z,42.33
2018-06-20T15:01:17.250Z,46.25
2018-06-20T15:03:45.800Z,45.45
2018-06-20T15:06:14.461Z,45.30
2018-06-20T15:08:43.673Z,44.30
2018-06-20T15:11:12.485Z,44.99
2018-06-20T15:13:41.012Z,42.59
2018-06-20T15:16:15.112Z,45.04
2018-06-20T15:18:43.661Z,44.81
2018-06-20T15:21:12.220Z,43.85
2018-06-20T15:23:40.744Z,45.00
2018-06-20T15:26:14.597Z,45.12
2018-06-20T15:28:49.031Z,45.39
2018-06-20T15:31:22.753Z,46.99
2018-06-20T15:35:00.501Z,47.48
2018-06-20T15:37:34.351Z,44.63
2018-06-20T15:40:03.296Z,43.75
2018-06-20T15:42:31.819Z,43.60
2018-06-20T15:45:00.391Z,41.73
2018-06-20T15:47:28.913Z,49.65
2018-06-20T15:49:57.475Z,46.39
2018-06-20T15:52:26.002Z,45.63
2018-06-20T15:54:54.790Z,47.36
2018-06-20T15:57:23.334Z,44.20
2018-06-20T15:59:51.860Z,45.29
2018-06-20T16:02:20.453Z,44.45
2018-06-20T16:04:48.976Z,43.41
2018-06-20T16:07:17.531Z,43.27
2018-06-20T16:09:51.358Z,42.75
2018-06-20T16:12:19.880Z,41.56
2018-06-20T16:14:48.414Z,43.25
2018-06-20T16:17:17.016Z,41.16
2018-06-20T16:19:50.867Z,39.71
2018-06-20T16:22:24.603Z,40.95
2018-06-20T16:24:58.332Z,43.53
2018-06-20T16:27:32.011Z,41.98
2018-06-20T16:30:05.585Z,43.52
2018-06-20T16:32:34.140Z,43.41
2018-06-20T16:35:03.121Z,40.91
2018-06-20T16:37:31.835Z,44.63
2018-06-20T16:40:00.214Z,43.93
2018-06-20T16:42:28.770Z,42.04
2018-06-20T16:44:57.294Z,34.44
2018-06-20T16:47:25.841Z,28.40
2018-06-20T16:49:54.373Z,25.15
2018-06-20T16:52:23.203Z,23.42
2018-06-20T16:54:51.721Z,25.67
2018-06-20T16:57:20.276Z,28.35
2018-06-20T16:59:48.789Z,23.90
2018-06-20T17:02:22.709Z,24.58
2018-06-20T17:04:51.445Z,28.53
2018-06-20T17:07:20.005Z,30.33
2018-06-20T17:09:49.220Z,23.86
2018-06-20T17:12:23.019Z,24.90
2018-06-20T17:14:56.861Z,25.91
2018-06-20T17:17:30.809Z,24.51
2018-06-20T17:20:04.587Z,24.79
2018-06-20T17:22:38.421Z,26.43
2018-06-20T17:25:12.177Z,24.40
2018-06-20T17:27:40.758Z,28.13
2018-06-20T17:30:09.328Z,26.22
2018-06-20T17:32:37.881Z,26.96
2018-06-20T17:35:06.437Z,31.60
2018-06-20T17:37:34.988Z,28.73
2018-06-20T17:40:03.613Z,25.88
2018-06-20T17:42:32.180Z,25.19
2018-06-20T17:45:00.711Z,22.99
2018-06-20T17:47:29.278Z,25.75
2018-06-20T17:49:58.073Z,25.11
2018-06-20T17:52:26.687Z,26.03
2018-06-20T17:54:55.225Z,26.71
2018-06-20T17:57:23.784Z,28.20
2018-06-20T17:59:52.345Z,28.15
2018-06-20T18:02:20.908Z,29.22
2018-06-20T18:04:54.745Z,31.07
2018-06-20T18:07:28.355Z,32.51
2018-06-20T18:10:01.984Z,32.00
2018-06-20T18:12:38.549Z,32.14
2018-06-20T18:15:12.743Z,34.53
2018-06-20T18:17:41.736Z,33.35
2018-06-20T18:20:10.310Z,34.33
2018-06-20T18:22:38.917Z,34.12
2018-06-20T18:25:07.484Z,34.21
2018-06-20T18:27:36.024Z,34.92
2018-06-20T18:30:04.745Z,34.86
2018-06-20T18:32:33.330Z,36.47
2018-06-20T18:35:02.089Z,36.03
2018-06-20T18:37:30.648Z,35.87
2018-06-20T18:40:06.009Z,37.24
2018-06-20T18:42:36.213Z,37.40
2018-06-20T18:45:04.940Z,41.26
2018-06-20T18:47:38.656Z,41.17
2018-06-20T18:50:07.732Z,42.82
2018-06-20T18:52:36.285Z,43.79
2018-06-20T18:55:04.912Z,45.11
2018-06-20T18:57:38.693Z,44.71
2018-06-20T19:00:13.372Z,47.47
2018-06-20T19:02:47.238Z,47.55
2018-06-20T19:05:20.957Z,47.93
2018-06-20T19:07:54.851Z,48.00
2018-06-20T19:10:23.412Z,49.96
2018-06-20T19:12:51.928Z,52.78
2018-06-20T19:15:20.473Z,54.80
2018-06-20T19:17:48.993Z,57.35
2018-06-20T19:20:17.541Z,56.37
2018-06-20T19:22:46.061Z,57.37
2018-06-20T19:25:14.612Z,59.49
2018-06-20T19:27:43.180Z,60.75
2018-06-20T19:30:11.738Z,59.64
2018-06-20T19:32:40.247Z,60.55
2018-06-20T19:35:08.816Z,60.77
2018-06-20T19:37:37.360Z,61.25
2018-06-20T19:40:05.881Z,62.71
2018-06-20T19:42:34.458Z,61.81
2018-06-20T19:45:03.058Z,62.92
2018-06-20T19:47:31.577Z,62.34
2018-06-20T19:50:00.365Z,62.89
2018-06-20T19:52:28.914Z,61.83
2018-06-20T19:54:57.429Z,62.07
2018-06-20T19:57:25.976Z,62.18
2018-06-20T19:59:54.489Z,62.40
2018-06-20T20:02:23.100Z,62.77
2018-06-20T20:04:51.624Z,65.20
2018-06-20T20:07:20.178Z,66.68
2018-06-20T20:09:48.711Z,66.61
2018-06-20T20:12:17.715Z,66.70
2018-06-20T20:14:46.234Z,67.38
2018-06-20T20:17:15.713Z,68.33
2018-06-20T20:19:44.234Z,68.26
2018-06-20T20:22:12.792Z,67.61
2018-06-20T20:24:41.312Z,66.72
2018-06-20T20:27:09.877Z,67.06
2018-06-20T20:29:38.397Z,68.90
2018-06-20T20:32:06.950Z,70.11
2018-06-20T20:34:35.481Z,71.18
2018-06-20T20:37:04.058Z,70.97
2018-06-20T20:39:32.565Z,71.41
2018-06-20T20:42:01.120Z,72.73
2018-06-20T20:44:29.752Z,78.37
2018-06-20T20:46:58.564Z,72.24
2018-06-20T20:49:27.345Z,72.09
2018-06-20T20:51:56.117Z,75.15
2018-06-20T20:54:24.678Z,75.37
2018-06-20T20:56:53.262Z,78.31
2018-06-20T20:59:21.836Z,75.42
2018-06-20T21:01:50.377Z,74.59
2018-06-20T21:04:18.974Z,73.43
2018-06-20T21:06:47.676Z,73.15
2018-06-20T21:09:16.224Z,74.27
2018-06-20T21:11:49.183Z,74.66
2018-06-20T21:14:17.981Z,74.83
2018-06-20T21:16:53.576Z,74.59
2018-06-20T21:19:26.737Z,75.76
2018-06-20T21:22:01.668Z,76.35
2018-06-20T21:24:34.300Z,76.56
2018-06-20T21:27:05.722Z,74.78
2018-06-20T21:29:36.244Z,75.08
2018-06-20T21:32:05.226Z,76.35
2018-06-20T21:34:36.669Z,75.68
2018-06-20T21:37:09.826Z,76.59
2018-06-20T21:39:42.348Z,77.59
2018-06-20T21:42:12.906Z,77.21
2018-06-20T21:44:44.130Z,79.55
2018-06-20T21:47:14.543Z,79.16
2018-06-20T21:49:45.609Z,79.82
2018-06-20T21:52:16.094Z,79.34
2018-06-20T21:54:48.373Z,79.81
2018-06-20T21:57:20.594Z,79.63
2018-06-20T21:59:50.586Z,79.82
2018-06-20T22:02:21.633Z,81.02
2018-06-20T22:04:55.325Z,81.10
2018-06-20T22:07:25.903Z,81.26
2018-06-20T22:10:00.860Z,82.24
2018-06-20T22:12:31.377Z,82.09
2018-06-20T22:15:01.619Z,82.35
2018-06-20T22:17:30.137Z,82.81
2018-06-20T22:20:00.390Z,82.39
2018-06-20T22:22:32.400Z,83.55
2018-06-20T22:25:03.157Z,82.97
2018-06-20T22:27:35.341Z,83.25
2018-06-20T22:30:09.692Z,84.41
2018-06-20T22:32:41.339Z,83.09
2018-06-20T22:35:10.013Z,81.41
2018-06-20T22:37:38.550Z,83.72
2018-06-20T22:40:07.159Z,82.56
2018-06-20T22:42:40.578Z,82.37
2018-06-20T22:45:13.304Z,82.84
2018-06-20T22:47:42.695Z,83.45
2018-06-20T22:50:13.301Z,83.11
2018-06-20T22:52:44.509Z,83.47
2018-06-20T22:55:15.993Z,83.03
2018-06-20T22:57:45.278Z,84.80
2018-06-20T23:00:14.718Z,84.11
2018-06-20T23:02:43.265Z,83.78
2018-06-20T23:05:11.845Z,84.63
2018-06-20T23:07:40.364Z,86.00
2018-06-20T23:10:08.889Z,87.54
2018-06-20T23:12:37.449Z,87.49
2018-06-20T23:15:06.258Z,86.52
2018-06-20T23:17:34.805Z,85.85
2018-06-20T23:20:03.333Z,84.88
2018-06-20T23:22:31.889Z,84.65
2018-06-20T23:25:00.401Z,85.14
2018-06-20T23:27:28.973Z,85.72
2018-06-20T23:29:57.557Z,85.16
2018-06-20T23:32:26.110Z,85.77
2018-06-20T23:34:54.619Z,86.02
2018-06-20T23:37:23.165Z,86.03
2018-06-20T23:39:51.681Z,86.35
2018-06-20T23:42:20.241Z,85.35
2018-06-20T23:44:48.761Z,85.80
2018-06-20T23:47:18.297Z,85.83
2018-06-20T23:49:46.817Z,86.49
2018-06-20T23:52:15.600Z,87.62
2018-06-20T23:54:44.133Z,86.23
2018-06-20T23:57:12.708Z,86.66
2018-06-20T23:59:41.223Z,86.16
